createdAt,value
2023-04-28T00:01:41.865Z,96.96
2023-04-28T00:04:09.220Z,97.20
2023-04-28T00:06:36.198Z,97.17
2023-04-28T00:09:03.731Z,97.34
2023-04-28T00:11:30.405Z,97.29
2023-04-28T00:13:57.079Z,97.45
2023-04-28T00:16:24.198Z,97.60
2023-04-28T00:18:51.418Z,97.47
2023-04-28T00:21:18.124Z,97.56
2023-04-28T00:23:44.830Z,97.59
2023-04-28T00:26:12.418Z,97.83
2023-04-28T00:28:39.060Z,97.88
2023-04-28T00:31:13.388Z,97.93
2023-04-28T00:33:41.057Z,97.71
2023-04-28T00:36:08.265Z,97.79
2023-04-28T00:38:35.282Z,98.15
2023-04-28T00:41:01.981Z,98.22
2023-04-28T00:43:29.131Z,98.21
2023-04-28T00:45:56.082Z,98.49
2023-04-28T00:48:24.179Z,98.60
2023-04-28T00:50:51.965Z,98.76
2023-04-28T00:53:18.691Z,98.62
2023-04-28T00:55:47.021Z,98.97
2023-04-28T00:58:13.810Z,98.90
2023-04-28T01:00:40.635Z,99.05
2023-04-28T01:03:08.090Z,99.16
2023-04-28T01:05:35.584Z,99.21
2023-04-28T01:08:03.115Z,99.18
2023-04-28T01:10:30.819Z,99.45
2023-04-28T01:12:57.477Z,99.51
2023-04-28T01:15:26.157Z,99.46
2023-04-28T01:17:52.936Z,99.61
2023-04-28T01:20:19.733Z,99.63
2023-04-28T01:22:46.480Z,99.85
2023-04-28T01:25:13.100Z,99.91
2023-04-28T01:27:39.698Z,99.88
2023-04-28T01:30:07.049Z,99.92
2023-04-28T01:32:33.762Z,99.94
2023-04-28T01:35:00.486Z,100.00
2023-04-28T01:37:27.123Z,100.00
2023-04-28T01:39:53.792Z,100.00
2023-04-28T01:42:20.491Z,100.00
2023-04-28T01:44:47.087Z,100.00
2023-04-28T01:47:13.718Z,100.00
2023-04-28T01:49:40.426Z,100.00
2023-04-28T01:52:07.170Z,100.00
2023-04-28T01:54:33.934Z,100.00
2023-04-28T01:57:00.570Z,100.00
2023-04-28T01:59:27.369Z,100.00
2023-04-28T02:01:54.082Z,100.00
2023-04-28T02:04:20.831Z,100.00
2023-04-28T02:06:47.455Z,100.00
2023-04-28T02:09:14.121Z,100.00
2023-04-28T02:11:40.826Z,100.00
2023-04-28T02:14:07.478Z,100.00
2023-04-28T02:16:34.258Z,100.00
2023-04-28T02:19:01.110Z,100.00
2023-04-28T02:21:27.984Z,100.00
2023-04-28T02:23:54.706Z,100.00
2023-04-28T02:26:21.400Z,100.00
2023-04-28T02:28:49.210Z,100.00
2023-04-28T02:31:16.400Z,100.00
2023-04-28T02:33:43.338Z,100.00
2023-04-28T02:36:10.886Z,100.00
2023-04-28T02:38:37.514Z,100.00
2023-04-28T02:41:06.572Z,100.00
2023-04-28T02:43:33.914Z,100.00
2023-04-28T02:46:01.190Z,100.00
2023-04-28T02:48:27.889Z,100.00
2023-04-28T02:50:54.693Z,100.00
2023-04-28T02:53:22.370Z,100.00
2023-04-28T02:55:49.683Z,100.00
2023-04-28T02:58:17.951Z,100.00
2023-04-28T03:00:45.615Z,100.00
2023-04-28T03:03:13.370Z,100.00
2023-04-28T03:05:40.235Z,100.00
2023-04-28T03:08:07.040Z,100.00
2023-04-28T03:10:33.890Z,100.00
2023-04-28T03:13:00.578Z,100.00
2023-04-28T03:15:27.741Z,100.00
2023-04-28T03:17:54.466Z,100.00
2023-04-28T03:20:21.355Z,100.00
2023-04-28T03:22:48.029Z,100.00
2023-04-28T03:25:16.713Z,100.00
2023-04-28T03:27:43.292Z,100.00
2023-04-28T03:30:10.579Z,100.00
2023-04-28T03:32:37.256Z,100.00
2023-04-28T03:35:04.463Z,100.00
2023-04-28T03:37:31.127Z,100.00
2023-04-28T03:39:57.787Z,100.00
2023-04-28T03:42:24.422Z,100.00
2023-04-28T03:44:51.090Z,100.00
2023-04-28T03:47:17.739Z,100.00
2023-04-28T03:49:44.329Z,100.00
2023-04-28T03:52:11.114Z,100.00
2023-04-28T03:54:38.417Z,100.00
2023-04-28T03:57:05.050Z,100.00
2023-04-28T03:59:31.754Z,100.00
2023-04-28T04:01:58.556Z,100.00
2023-04-28T04:04:26.762Z,100.00
2023-04-28T04:06:55.024Z,100.00
2023-04-28T04:09:23.282Z,100.00
2023-04-28T04:11:49.953Z,100.00
2023-04-28T04:14:16.711Z,100.00
2023-04-28T04:16:43.639Z,100.00
2023-04-28T04:19:10.309Z,100.00
2023-04-28T04:21:36.904Z,100.00
2023-04-28T04:24:03.754Z,100.00
2023-04-28T04:26:30.608Z,100.00
2023-04-28T04:28:57.340Z,100.00
2023-04-28T04:31:23.943Z,100.00
2023-04-28T04:33:50.628Z,100.00
2023-04-28T04:36:17.383Z,100.00
2023-04-28T04:38:43.972Z,100.00
2023-04-28T04:41:10.694Z,100.00
2023-04-28T04:43:37.411Z,100.00
2023-04-28T04:46:04.325Z,100.00
2023-04-28T04:48:31.007Z,100.00
2023-04-28T04:50:57.657Z,100.00
2023-04-28T04:53:24.337Z,100.00
2023-04-28T04:55:51.045Z,100.00
2023-04-28T04:58:17.969Z,100.00
2023-04-28T05:00:44.655Z,100.00
2023-04-28T05:03:11.950Z,100.00
2023-04-28T05:05:38.792Z,100.00
2023-04-28T05:08:06.010Z,100.00
2023-04-28T05:10:32.980Z,100.00
2023-04-28T05:12:59.586Z,100.00
2023-04-28T05:15:26.330Z,100.00
2023-04-28T05:17:53.131Z,100.00
2023-04-28T05:20:19.845Z,100.00
2023-04-28T05:22:46.536Z,100.00
2023-04-28T05:25:13.272Z,100.00
2023-04-28T05:27:41.064Z,100.00
2023-04-28T05:30:09.331Z,100.00
2023-04-28T05:32:36.757Z,100.00
2023-04-28T05:35:03.737Z,100.00
2023-04-28T05:37:30.420Z,100.00
2023-04-28T05:39:57.079Z,100.00
2023-04-28T05:42:23.739Z,100.00
2023-04-28T05:44:50.478Z,100.00
2023-04-28T05:47:17.182Z,100.00
2023-04-28T05:49:43.785Z,100.00
2023-04-28T05:52:10.430Z,100.00
2023-04-28T05:54:37.131Z,100.00
2023-04-28T05:57:04.038Z,100.00
2023-04-28T05:59:31.628Z,100.00
2023-04-28T06:01:58.411Z,100.00
2023-04-28T06:04:26.505Z,100.00
2023-04-28T06:06:53.532Z,100.00
2023-04-28T06:09:20.376Z,100.00
2023-04-28T06:11:47.207Z,100.00
2023-04-28T06:14:13.919Z,100.00
2023-04-28T06:16:40.749Z,100.00
2023-04-28T06:19:07.664Z,100.00
2023-04-28T06:21:34.393Z,100.00
2023-04-28T06:24:02.112Z,100.00
2023-04-28T06:26:29.340Z,100.00
2023-04-28T06:28:56.534Z,100.00
2023-04-28T06:31:23.196Z,100.00
2023-04-28T06:33:49.964Z,100.00
2023-04-28T06:36:18.196Z,100.00
2023-04-28T06:38:46.037Z,100.00
2023-04-28T06:41:13.006Z,100.00
2023-04-28T06:43:39.776Z,100.00
2023-04-28T06:46:06.534Z,100.00
2023-04-28T06:48:33.307Z,100.00
2023-04-28T06:50:59.965Z,100.00
2023-04-28T06:53:26.717Z,100.00
2023-04-28T06:55:53.570Z,100.00
2023-04-28T06:58:21.053Z,100.00
2023-04-28T07:00:47.816Z,100.00
2023-04-28T07:03:14.651Z,100.00
2023-04-28T07:05:41.366Z,100.00
2023-04-28T07:08:08.148Z,100.00
2023-04-28T07:10:34.834Z,100.00
2023-04-28T07:13:01.654Z,100.00
2023-04-28T07:15:28.724Z,100.00
2023-04-28T07:17:55.690Z,100.00
2023-04-28T07:20:22.495Z,100.00
2023-04-28T07:22:49.342Z,100.00
2023-04-28T07:25:16.099Z,100.00
2023-04-28T07:27:42.773Z,100.00
2023-04-28T07:30:26.015Z,100.00
2023-04-28T07:32:54.529Z,100.00
2023-04-28T07:35:28.873Z,100.00
2023-04-28T07:37:56.055Z,100.00
2023-04-28T07:40:22.764Z,100.00
2023-04-28T07:42:49.662Z,100.00
2023-04-28T07:45:16.887Z,100.00
2023-04-28T07:47:43.586Z,100.00
2023-04-28T07:50:11.980Z,100.00
2023-04-28T07:52:38.662Z,100.00
2023-04-28T07:55:06.318Z,100.00
2023-04-28T07:57:33.003Z,100.00
2023-04-28T07:59:59.645Z,100.00
2023-04-28T08:02:27.522Z,100.00
2023-04-28T08:04:54.532Z,100.00
2023-04-28T08:07:21.273Z,100.00
2023-04-28T08:09:48.414Z,100.00
2023-04-28T08:12:15.623Z,100.00
2023-04-28T08:14:43.621Z,100.00
2023-04-28T08:17:10.456Z,100.00
2023-04-28T08:19:37.233Z,100.00
2023-04-28T08:22:06.142Z,100.00
2023-04-28T08:24:36.633Z,100.00
2023-04-28T08:27:03.887Z,100.00
2023-04-28T08:29:31.930Z,100.00
2023-04-28T08:32:01.319Z,100.00
2023-04-28T08:34:28.021Z,100.00
2023-04-28T08:36:54.680Z,100.00
2023-04-28T08:39:23.485Z,100.00
2023-04-28T08:41:50.762Z,100.00
2023-04-28T08:44:18.644Z,100.00
2023-04-28T08:46:47.363Z,100.00
2023-04-28T08:49:18.940Z,100.00
2023-04-28T08:51:50.460Z,100.00
2023-04-28T08:54:29.320Z,100.00
2023-04-28T08:56:57.181Z,100.00
2023-04-28T08:59:24.126Z,100.00
2023-04-28T09:01:51.465Z,100.00
2023-04-28T09:04:19.171Z,100.00
2023-04-28T09:06:46.597Z,100.00
2023-04-28T09:09:23.207Z,100.00
2023-04-28T09:11:55.526Z,100.00
2023-04-28T09:14:23.901Z,99.76
2023-04-28T09:16:51.781Z,99.60
2023-04-28T09:19:19.175Z,99.22
2023-04-28T09:21:54.495Z,99.22
2023-04-28T09:24:35.880Z,99.12
2023-04-28T09:27:04.725Z,99.05
2023-04-28T09:29:32.329Z,98.81
2023-04-28T09:32:23.215Z,98.70
2023-04-28T09:34:52.492Z,98.62
2023-04-28T09:37:21.241Z,98.37
2023-04-28T09:39:50.735Z,98.05
2023-04-28T09:42:35.391Z,97.91
2023-04-28T09:45:07.130Z,98.05
2023-04-28T09:47:36.332Z,98.05
2023-04-28T09:50:11.775Z,97.86
2023-04-28T09:52:38.976Z,97.56
2023-04-28T09:55:08.694Z,97.65
2023-04-28T09:57:36.564Z,97.71
2023-04-28T10:00:09.220Z,97.59
2023-04-28T10:05:09.943Z,97.28
2023-04-28T10:07:38.084Z,97.22
2023-04-28T10:10:06.218Z,97.39
2023-04-28T10:12:33.307Z,97.60
2023-04-28T10:15:00.237Z,97.86
2023-04-28T10:17:29.553Z,96.72
2023-04-28T10:19:57.273Z,96.13
2023-04-28T10:22:50.068Z,96.00
2023-04-28T10:25:32.673Z,95.88
2023-04-28T10:28:00.724Z,95.17
2023-04-28T10:30:31.413Z,94.70
2023-04-28T10:33:13.593Z,94.34
2023-04-28T10:35:45.652Z,93.84
2023-04-28T10:38:21.765Z,93.43
2023-04-28T10:40:50.143Z,93.39
2023-04-28T10:43:27.090Z,92.23
2023-04-28T10:45:57.934Z,91.43
2023-04-28T10:48:34.332Z,91.33
2023-04-28T10:51:04.424Z,91.40
2023-04-28T10:53:47.321Z,91.39
2023-04-28T10:56:21.916Z,91.23
2023-04-28T10:59:00.546Z,91.27
2023-04-28T11:01:35.176Z,91.00
2023-04-28T11:04:14.027Z,90.67
2023-04-28T11:06:46.068Z,90.39
2023-04-28T11:09:12.698Z,90.01
2023-04-28T11:11:40.368Z,89.54
2023-04-28T11:14:19.182Z,89.12
2023-04-28T11:16:55.146Z,88.75
2023-04-28T11:19:26.575Z,87.97
2023-04-28T11:21:58.244Z,87.52
2023-04-28T11:24:25.943Z,87.35
2023-04-28T11:26:53.440Z,86.93
2023-04-28T11:29:41.047Z,86.56
2023-04-28T11:32:09.497Z,85.84
2023-04-28T11:34:37.267Z,85.20
2023-04-28T11:37:07.239Z,84.83
2023-04-28T11:39:34.708Z,84.67
2023-04-28T11:42:10.209Z,84.44
2023-04-28T11:44:36.991Z,84.20
2023-04-28T11:47:05.675Z,83.77
2023-04-28T11:49:42.883Z,83.97
2023-04-28T11:52:10.602Z,83.65
2023-04-28T11:54:38.168Z,83.63
2023-04-28T11:57:05.932Z,83.55
2023-04-28T11:59:34.811Z,83.19
2023-04-28T12:02:04.476Z,82.58
2023-04-28T12:04:42.371Z,81.98
2023-04-28T12:07:14.486Z,81.48
2023-04-28T12:09:42.831Z,81.27
2023-04-28T12:12:12.320Z,80.88
2023-04-28T12:15:05.746Z,81.02
2023-04-28T12:17:42.770Z,80.73
2023-04-28T12:20:11.804Z,79.69
2023-04-28T12:22:46.979Z,79.00
2023-04-28T12:25:17.391Z,78.77
2023-04-28T12:28:00.826Z,78.59
2023-04-28T12:30:28.658Z,77.50
2023-04-28T12:32:56.561Z,76.96
2023-04-28T12:35:25.453Z,76.61
2023-04-28T12:37:53.718Z,76.21
2023-04-28T12:40:20.466Z,75.94
2023-04-28T12:42:47.144Z,75.62
2023-04-28T12:45:14.126Z,75.15
2023-04-28T12:47:41.052Z,74.86
2023-04-28T12:50:08.555Z,74.88
2023-04-28T12:52:36.036Z,74.75
2023-04-28T12:55:04.051Z,74.99
2023-04-28T12:57:30.936Z,75.04
2023-04-28T12:59:57.593Z,74.69
2023-04-28T13:02:24.807Z,74.55
2023-04-28T13:04:53.532Z,74.57
2023-04-28T13:07:20.766Z,74.64
2023-04-28T13:09:48.154Z,74.25
2023-04-28T13:12:15.694Z,74.23
2023-04-28T13:14:42.462Z,74.04
2023-04-28T13:17:10.497Z,74.03
2023-04-28T13:19:37.475Z,73.72
2023-04-28T13:22:06.029Z,73.49
2023-04-28T13:24:36.189Z,73.32
2023-04-28T13:27:04.256Z,73.77
2023-04-28T13:29:31.068Z,73.65
2023-04-28T13:31:57.788Z,73.66
2023-04-28T13:34:24.518Z,73.83
2023-04-28T13:36:54.073Z,74.12
2023-04-28T13:39:22.084Z,74.29
2023-04-28T13:41:49.525Z,74.01
2023-04-28T13:44:17.405Z,74.05
2023-04-28T13:46:44.078Z,73.62
2023-04-28T13:49:10.819Z,73.21
2023-04-28T13:51:37.799Z,72.87
2023-04-28T13:54:08.295Z,72.98
2023-04-28T13:56:36.595Z,72.84
2023-04-28T13:59:04.001Z,72.96
2023-04-28T14:01:30.972Z,72.86
2023-04-28T14:03:58.062Z,72.85
2023-04-28T14:06:24.921Z,72.54
2023-04-28T14:08:52.055Z,72.84
2023-04-28T14:11:18.694Z,72.47
2023-04-28T14:13:45.509Z,71.80
2023-04-28T14:16:12.386Z,71.52
2023-04-28T14:18:39.178Z,71.02
2023-04-28T14:21:08.511Z,70.59
2023-04-28T14:23:35.751Z,70.72
2023-04-28T14:26:02.726Z,70.73
2023-04-28T14:28:29.496Z,70.21
2023-04-28T14:30:56.484Z,70.35
2023-04-28T14:33:23.235Z,69.59
2023-04-28T14:35:49.867Z,68.88
2023-04-28T14:38:16.522Z,68.94
2023-04-28T14:40:43.178Z,69.01
2023-04-28T14:43:09.843Z,68.60
2023-04-28T14:45:38.254Z,68.66
2023-04-28T14:48:06.969Z,68.37
2023-04-28T14:50:33.809Z,68.44
2023-04-28T14:53:05.673Z,67.92
2023-04-28T14:55:32.835Z,68.05
2023-04-28T14:57:59.447Z,67.29
2023-04-28T15:00:26.128Z,66.32
2023-04-28T15:02:53.272Z,65.63
2023-04-28T15:05:20.124Z,64.94
2023-04-28T15:07:46.955Z,64.50
2023-04-28T15:10:13.671Z,63.67
2023-04-28T15:12:40.471Z,63.10
2023-04-28T15:15:07.972Z,61.84
2023-04-28T15:17:35.013Z,61.22
2023-04-28T15:20:02.004Z,60.23
2023-04-28T15:22:28.602Z,59.70
2023-04-28T15:24:56.082Z,59.75
2023-04-28T15:27:23.301Z,59.53
2023-04-28T15:29:50.710Z,59.45
2023-04-28T15:32:17.623Z,59.85
2023-04-28T15:34:44.317Z,60.14
2023-04-28T15:37:47.696Z,60.98
2023-04-28T15:40:16.803Z,61.63
2023-04-28T15:42:52.168Z,61.34
2023-04-28T15:45:22.834Z,61.72
2023-04-28T15:47:51.065Z,61.37
2023-04-28T15:50:19.832Z,60.45
2023-04-28T15:52:48.521Z,59.98
2023-04-28T15:55:20.197Z,59.44
2023-04-28T15:57:49.527Z,59.17
2023-04-28T16:00:16.546Z,58.73
2023-04-28T16:02:43.968Z,58.67
2023-04-28T16:05:11.382Z,58.69
2023-04-28T16:07:39.195Z,58.70
2023-04-28T16:10:08.245Z,58.75
2023-04-28T16:12:35.706Z,58.78
2023-04-28T16:15:03.226Z,58.72
2023-04-28T16:17:30.262Z,59.21
2023-04-28T16:19:57.140Z,59.22
2023-04-28T16:22:23.992Z,59.02
2023-04-28T16:24:51.663Z,58.76
2023-04-28T16:27:18.384Z,59.05
2023-04-28T16:29:45.953Z,59.65
2023-04-28T16:32:12.733Z,59.63
2023-04-28T16:34:39.480Z,59.45
2023-04-28T16:37:10.963Z,60.07
2023-04-28T16:39:37.666Z,59.62
2023-04-28T16:42:05.318Z,58.97
2023-04-28T16:44:32.248Z,58.93
2023-04-28T16:46:59.492Z,58.99
2023-04-28T16:49:26.310Z,59.18
2023-04-28T16:52:06.516Z,58.82
2023-04-28T16:54:33.702Z,59.56
2023-04-28T16:57:05.040Z,59.10
2023-04-28T16:59:33.302Z,58.85
2023-04-28T17:02:02.065Z,58.27
2023-04-28T17:04:28.954Z,58.66
2023-04-28T17:06:55.985Z,59.31
2023-04-28T17:09:22.937Z,58.94
2023-04-28T17:11:50.126Z,58.63
2023-04-28T17:14:17.078Z,58.13
2023-04-28T17:16:43.975Z,58.10
2023-04-28T17:19:11.601Z,58.10
2023-04-28T17:21:38.505Z,58.85
2023-04-28T17:24:05.621Z,58.94
2023-04-28T17:26:32.394Z,59.39
2023-04-28T17:28:59.952Z,59.56
2023-04-28T17:31:27.714Z,60.08
2023-04-28T17:33:56.261Z,60.23
2023-04-28T17:36:23.402Z,60.75
2023-04-28T17:38:52.710Z,61.78
2023-04-28T17:41:23.282Z,62.10
2023-04-28T17:43:53.626Z,63.07
2023-04-28T17:46:21.251Z,63.99
2023-04-28T17:48:47.930Z,64.75
2023-04-28T17:51:14.682Z,65.47
2023-04-28T17:53:42.467Z,66.09
2023-04-28T17:56:09.180Z,66.58
2023-04-28T17:58:36.471Z,66.36
2023-04-28T18:01:04.353Z,66.61
2023-04-28T18:03:32.480Z,66.23
2023-04-28T18:05:59.494Z,66.15
2023-04-28T18:08:26.163Z,66.53
2023-04-28T18:10:53.538Z,66.71
2023-04-28T18:13:20.318Z,67.00
2023-04-28T18:15:47.040Z,67.66
2023-04-28T18:18:13.693Z,68.01
2023-04-28T18:20:42.289Z,68.21
2023-04-28T18:23:09.631Z,68.69
2023-04-28T18:25:37.174Z,68.93
2023-04-28T18:28:04.326Z,69.27
2023-04-28T18:30:39.677Z,69.60
2023-04-28T18:33:08.371Z,69.76
2023-04-28T18:35:37.021Z,69.81
2023-04-28T18:38:05.138Z,70.06
2023-04-28T18:40:37.659Z,70.18
2023-04-28T18:43:05.602Z,70.24
2023-04-28T18:45:34.551Z,70.40
2023-04-28T18:48:02.379Z,70.72
2023-04-28T18:50:29.777Z,70.81
2023-04-28T18:52:56.648Z,71.25
2023-04-28T18:55:23.415Z,71.29
2023-04-28T18:57:50.330Z,71.29
2023-04-28T19:00:17.344Z,71.41
2023-04-28T19:02:45.322Z,71.59
2023-04-28T19:05:12.174Z,71.68
2023-04-28T19:07:39.940Z,71.92
2023-04-28T19:10:07.126Z,72.14
2023-04-28T19:12:33.797Z,72.39
2023-04-28T19:15:01.075Z,72.95
2023-04-28T19:17:28.067Z,73.31
2023-04-28T19:19:56.312Z,73.52
2023-04-28T19:22:35.197Z,73.91
2023-04-28T19:25:02.876Z,74.28
2023-04-28T19:27:32.153Z,74.45
2023-04-28T19:29:59.989Z,74.48
2023-04-28T19:32:27.122Z,74.72
2023-04-28T19:34:54.951Z,74.95
2023-04-28T19:37:22.244Z,75.19
2023-04-28T19:39:51.130Z,75.53
2023-04-28T19:42:18.835Z,75.74
2023-04-28T19:44:46.375Z,75.71
2023-04-28T19:47:13.451Z,75.82
2023-04-28T19:49:42.247Z,75.68
2023-04-28T19:52:10.346Z,75.77
2023-04-28T19:54:39.532Z,75.98
2023-04-28T19:57:06.175Z,76.08
2023-04-28T19:59:32.961Z,76.52
2023-04-28T20:02:00.126Z,76.72
2023-04-28T20:04:28.977Z,76.89
2023-04-28T20:06:56.118Z,77.24
2023-04-28T20:09:22.814Z,77.33
2023-04-28T20:11:49.574Z,77.55
2023-04-28T20:14:16.297Z,77.72
2023-04-28T20:16:43.362Z,77.76
2023-04-28T20:19:10.822Z,77.33
2023-04-28T20:21:39.461Z,77.63
2023-04-28T20:24:07.102Z,77.58
2023-04-28T20:26:34.074Z,77.83
2023-04-28T20:29:00.733Z,77.79
2023-04-28T20:31:29.973Z,78.24
2023-04-28T20:33:56.733Z,78.25
2023-04-28T20:36:23.532Z,78.65
2023-04-28T20:38:50.258Z,78.98
2023-04-28T20:41:16.992Z,79.28
2023-04-28T20:43:43.651Z,79.38
2023-04-28T20:46:13.382Z,79.61
2023-04-28T20:48:40.682Z,79.42
2023-04-28T20:51:07.657Z,79.38
2023-04-28T20:53:34.419Z,79.17
2023-04-28T20:56:01.491Z,79.13
2023-04-28T20:58:28.279Z,79.21
2023-04-28T21:00:55.008Z,79.25
2023-04-28T21:03:23.823Z,79.27
2023-04-28T21:05:50.658Z,79.33
2023-04-28T21:08:17.287Z,79.29
2023-04-28T21:10:43.975Z,79.42
2023-04-28T21:13:10.672Z,79.69
2023-04-28T21:15:38.619Z,79.98
2023-04-28T21:18:05.680Z,79.99
2023-04-28T21:20:32.472Z,80.30
2023-04-28T21:22:59.182Z,80.62
2023-04-28T21:25:26.297Z,80.75
2023-04-28T21:27:53.328Z,80.55
2023-04-28T21:30:20.831Z,80.45
2023-04-28T21:32:47.682Z,80.44
2023-04-28T21:35:14.802Z,80.79
2023-04-28T21:37:41.646Z,80.71
2023-04-28T21:40:09.421Z,80.63
2023-04-28T21:42:36.242Z,80.61
2023-04-28T21:45:03.089Z,80.90
2023-04-28T21:47:30.136Z,80.94
2023-04-28T21:49:56.963Z,81.20
2023-04-28T21:52:23.766Z,81.34
2023-04-28T21:54:50.962Z,81.50
2023-04-28T21:57:17.768Z,81.79
2023-04-28T21:59:44.408Z,82.06
2023-04-28T22:02:12.698Z,82.02
2023-04-28T22:04:39.601Z,82.14
2023-04-28T22:07:06.566Z,82.39
2023-04-28T22:09:33.528Z,82.48
2023-04-28T22:12:00.229Z,82.37
2023-04-28T22:14:40.248Z,82.42
2023-04-28T22:17:08.278Z,82.39
2023-04-28T22:19:34.931Z,82.55
2023-04-28T22:22:01.752Z,82.49
2023-04-28T22:24:28.516Z,82.68
2023-04-28T22:26:55.179Z,82.89
2023-04-28T22:29:22.091Z,82.88
2023-04-28T22:31:48.830Z,82.68
2023-04-28T22:34:16.488Z,82.85
2023-04-28T22:36:43.267Z,83.10
2023-04-28T22:39:09.865Z,82.92
2023-04-28T22:41:36.481Z,82.99
2023-04-28T22:44:03.319Z,83.25
2023-04-28T22:46:30.261Z,83.30
2023-04-28T22:48:57.495Z,83.25
2023-04-28T22:51:24.401Z,83.25
2023-04-28T22:53:51.277Z,83.56
2023-04-28T22:56:18.096Z,83.72
2023-04-28T22:58:44.716Z,83.53
2023-04-28T23:01:11.737Z,83.78
2023-04-28T23:03:38.875Z,84.12
2023-04-28T23:06:05.943Z,84.04
2023-04-28T23:08:35.607Z,84.17
2023-04-28T23:11:06.393Z,84.41
2023-04-28T23:13:33.029Z,84.26
2023-04-28T23:16:00.561Z,84.49
2023-04-28T23:18:32.022Z,84.51
2023-04-28T23:20:58.964Z,84.16
2023-04-28T23:23:25.854Z,84.57
2023-04-28T23:25:55.676Z,84.77
2023-04-28T23:28:25.546Z,84.71
2023-04-28T23:30:52.147Z,84.68
2023-04-28T23:33:18.855Z,84.88
2023-04-28T23:35:45.615Z,84.80
2023-04-28T23:38:12.567Z,84.66
2023-04-28T23:40:39.328Z,84.86
2023-04-28T23:43:06.184Z,84.86
2023-04-28T23:45:33.021Z,84.85
2023-04-28T23:47:59.775Z,84.88
2023-04-28T23:50:27.900Z,84.87
2023-04-28T23:52:54.825Z,85.08
2023-04-28T23:55:22.142Z,85.03
2023-04-28T23:57:48.821Z,85.26
